Time;durP1;ratioP1;P1;durP2;ratioP2;P2;SDS_P1;SDS_P2;PMS_P1;PMS_P2;Temp;Humidity;BMP_temperature;BMP_pressure;BME280_temperature;BME280_humidity;BME280_pressure;Samples;Min_cycle;Max_cycle;Signal;HPM_P1;HPM_P2
2023/05/13 12:07:26;;;;;;;0.85;0.82;;;;;;;;;;5151865;27;20329;-48
2023/05/13 12:09:56;;;;;;;1.95;0.90;;;;;;;;;;5151375;27;20671;-46
2023/05/13 12:12:24;;;;;;;0.70;0.60;;;;;;;;;;5152479;27;20212;-50
2023/05/13 12:14:53;;;;;;;1.85;1.08;;;;;;;;;;5152190;27;20253;-57
2023/05/13 12:17:20;;;;;;;0.70;0.70;;;;;;;;;;5150569;27;20747;-62
2023/05/13 12:20:23;;;;;;;0.80;0.73;;;;;;;;;;5150537;27;20585;-58
2023/05/13 12:22:52;;;;;;;0.98;0.88;;;;;;;;;;5065863;28;20257;-58
2023/05/13 12:25:36;;;;;;;1.70;0.88;;;;;;;;;;5065284;28;20227;-60
2023/05/13 12:28:06;;;;;;;1.33;0.90;;;;;;;;;;5065817;28;20615;-60
2023/05/13 12:30:41;;;;;;;1.27;0.90;;;;;;;;;;5066712;28;20192;-59
2023/05/13 12:33:12;;;;;;;1.98;0.70;;;;;;;;;;5066193;28;20187;-60
2023/05/13 12:35:39;;;;;;;3.67;1.23;;;;;;;;;;5063893;28;20550;-59
2023/05/13 12:38:06;;;;;;;2.00;1.00;;;;;;;;;;5065896;28;20557;-57
2023/05/13 12:40:34;;;;;;;1.20;0.60;;;;;;;;;;5066571;28;20654;-59
2023/05/13 12:43:02;;;;;;;0.90;0.68;;;;;;;;;;5083940;28;20219;-59
2023/05/13 12:45:30;;;;;;;1.33;0.88;;;;;;;;;;5068067;28;20242;-57
2023/05/13 12:47:58;;;;;;;1.15;0.75;;;;;;;;;;5068111;28;20282;-58
2023/05/13 12:50:26;;;;;;;1.40;0.90;;;;;;;;;;5067862;28;20605;-59
2023/05/13 12:52:53;;;;;;;0.90;0.77;;;;;;;;;;5067612;28;20203;-59
2023/05/13 12:55:20;;;;;;;0.77;0.70;;;;;;;;;;5067917;28;20203;-60
2023/05/13 12:58:01;;;;;;;1.13;0.73;;;;;;;;;;5082637;28;20208;-60
2023/05/13 13:00:30;;;;;;;1.88;1.02;;;;;;;;;;5130990;28;20209;-59
2023/05/13 13:02:56;;;;;;;2.45;1.05;;;;;;;;;;5130591;28;20236;-57
2023/05/13 13:05:25;;;;;;;1.83;1.00;;;;;;;;;;5130913;28;20240;-48
2023/05/13 13:07:52;;;;;;;1.50;0.93;;;;;;;;;;5131222;28;20262;-56
2023/05/13 13:10:19;;;;;;;1.73;0.80;;;;;;;;;;5139769;27;20220;-54
2023/05/13 13:12:48;;;;;;;0.75;0.65;;;;;;;;;;5148205;27;20189;-50
2023/05/13 13:15:15;;;;;;;1.90;0.70;;;;;;;;;;5150310;27;20200;-49
2023/05/13 13:17:43;;;;;;;0.90;0.68;;;;;;;;;;5136413;27;20733;-51
2023/05/13 13:20:11;;;;;;;1.88;1.00;;;;;;;;;;5137099;27;20254;-49
2023/05/13 13:22:38;;;;;;;0.93;0.80;;;;;;;;;;5136156;27;20213;-54
2023/05/13 13:25:06;;;;;;;2.10;1.02;;;;;;;;;;5136390;27;20197;-49
2023/05/13 13:27:33;;;;;;;0.90;0.77;;;;;;;;;;5134614;27;20239;-52
2023/05/13 13:30:01;;;;;;;0.95;0.70;;;;;;;;;;5116482;27;20210;-49
2023/05/13 13:32:28;;;;;;;0.85;0.73;;;;;;;;;;5133038;27;20617;-49
2023/05/13 13:34:57;;;;;;;1.20;0.63;;;;;;;;;;5116600;28;20201;-50
2023/05/13 13:37:24;;;;;;;2.10;1.10;;;;;;;;;;5116812;28;20202;-49
2023/05/13 13:39:52;;;;;;;1.13;0.80;;;;;;;;;;5116740;28;20246;-49
2023/05/13 13:42:18;;;;;;;0.93;0.73;;;;;;;;;;5116331;28;20194;-49
2023/05/13 13:44:46;;;;;;;2.55;0.90;;;;;;;;;;5135169;27;20209;-48
2023/05/13 13:47:14;;;;;;;0.95;0.70;;;;;;;;;;5137107;27;20248;-54
2023/05/13 13:49:41;;;;;;;1.23;0.65;;;;;;;;;;5136914;27;20205;-50
2023/05/13 13:52:08;;;;;;;0.70;0.57;;;;;;;;;;5136585;27;20656;-51
2023/05/13 13:54:35;;;;;;;1.00;0.73;;;;;;;;;;5119685;27;20197;-50
2023/05/13 13:57:02;;;;;;;1.10;0.90;;;;;;;;;;5116044;28;20212;-51
2023/05/13 13:59:29;;;;;;;0.75;0.70;;;;;;;;;;5116043;28;20669;-52
2023/05/13 14:01:56;;;;;;;1.63;0.95;;;;;;;;;;5116019;28;20210;-53
2023/05/13 14:04:26;;;;;;;0.95;0.77;;;;;;;;;;5131639;27;20693;-53
2023/05/13 14:06:56;;;;;;;2.00;1.10;;;;;;;;;;5136319;27;20629;-54
2023/05/13 14:09:24;;;;;;;1.27;0.80;;;;;;;;;;5136771;27;20232;-54
2023/05/13 14:11:50;;;;;;;1.25;0.98;;;;;;;;;;5136264;27;20208;-52
2023/05/13 14:14:18;;;;;;;0.70;0.70;;;;;;;;;;5136562;27;20205;-52
2023/05/13 14:16:45;;;;;;;0.95;0.80;;;;;;;;;;5136491;27;20209;-52
2023/05/13 14:19:12;;;;;;;1.27;0.70;;;;;;;;;;5136145;27;20606;-56
2023/05/13 14:21:39;;;;;;;1.88;0.90;;;;;;;;;;5136175;27;20209;-53
2023/05/13 14:24:07;;;;;;;0.85;0.70;;;;;;;;;;5131328;27;20253;-55
2023/05/13 14:26:34;;;;;;;0.95;0.70;;;;;;;;;;5131668;27;20224;-57
2023/05/13 14:29:01;;;;;;;1.15;0.73;;;;;;;;;;5133360;27;20674;-57
2023/05/13 14:31:29;;;;;;;1.48;0.90;;;;;;;;;;5130559;27;20205;-59
2023/05/13 14:33:57;;;;;;;0.60;0.60;;;;;;;;;;5134984;27;20202;-58
2023/05/13 14:36:25;;;;;;;1.80;0.98;;;;;;;;;;5135033;27;20224;-56
2023/05/13 14:38:53;;;;;;;0.70;0.63;;;;;;;;;;5128958;27;20197;-58
2023/05/13 14:41:20;;;;;;;1.25;0.85;;;;;;;;;;5134208;27;20194;-56
2023/05/13 14:43:48;;;;;;;1.98;0.90;;;;;;;;;;5134691;27;20249;-54
2023/05/13 14:46:15;;;;;;;1.85;0.90;;;;;;;;;;5135147;27;20909;-57
2023/05/13 14:48:43;;;;;;;0.95;0.60;;;;;;;;;;5133666;27;20663;-57
2023/05/13 14:51:11;;;;;;;1.50;0.88;;;;;;;;;;5126095;27;20203;-57
2023/05/13 14:53:38;;;;;;;2.13;1.10;;;;;;;;;;5134083;27;20243;-58
2023/05/13 14:56:06;;;;;;;1.50;1.20;;;;;;;;;;5129282;27;20210;-57
2023/05/13 14:58:34;;;;;;;1.20;0.75;;;;;;;;;;5135072;27;20194;-55
2023/05/13 15:01:01;;;;;;;1.50;0.82;;;;;;;;;;5134432;27;20201;-58
2023/05/13 15:03:28;;;;;;;0.88;0.80;;;;;;;;;;5134621;27;20193;-55
2023/05/13 15:05:56;;;;;;;1.33;0.80;;;;;;;;;;5134943;27;20236;-50
2023/05/13 15:08:24;;;;;;;1.00;0.90;;;;;;;;;;5133441;27;20198;-52
2023/05/13 15:10:51;;;;;;;1.15;0.95;;;;;;;;;;5125552;27;20263;-56
2023/05/13 15:13:18;;;;;;;0.90;0.77;;;;;;;;;;5119935;27;20569;-57
2023/05/13 15:15:45;;;;;;;1.05;0.80;;;;;;;;;;5133260;27;20195;-50
2023/05/13 15:18:13;;;;;;;1.98;0.80;;;;;;;;;;5133887;27;20209;-55
2023/05/13 15:20:40;;;;;;;1.30;0.70;;;;;;;;;;5132211;27;20189;-56
2023/05/13 15:23:07;;;;;;;0.70;0.70;;;;;;;;;;5133515;27;20194;-57
2023/05/13 15:25:35;;;;;;;1.77;0.95;;;;;;;;;;5134672;27;20197;-48
2023/05/13 15:28:02;;;;;;;1.30;0.70;;;;;;;;;;5135039;27;20221;-47
2023/05/13 15:30:29;;;;;;;2.55;1.10;;;;;;;;;;5134691;27;20757;-52
2023/05/13 15:32:56;;;;;;;1.20;0.90;;;;;;;;;;5134729;27;20568;-50
2023/05/13 15:35:23;;;;;;;0.73;0.68;;;;;;;;;;5133844;27;20193;-50
2023/05/13 15:37:51;;;;;;;1.05;0.70;;;;;;;;;;5133858;27;20201;-55
2023/05/13 15:40:18;;;;;;;0.70;0.70;;;;;;;;;;5132839;27;20594;-49
2023/05/13 15:42:47;;;;;;;0.88;0.77;;;;;;;;;;5130505;27;20194;-55
2023/05/13 15:45:14;;;;;;;1.00;0.77;;;;;;;;;;5133988;27;20219;-55
2023/05/13 15:47:41;;;;;;;1.00;0.82;;;;;;;;;;5134541;27;20217;-55
2023/05/13 15:50:09;;;;;;;1.08;0.80;;;;;;;;;;5133063;27;20208;-55
2023/05/13 15:52:37;;;;;;;1.20;0.95;;;;;;;;;;5130290;27;20221;-55
2023/05/13 15:55:05;;;;;;;1.58;0.93;;;;;;;;;;5128239;27;20206;-55
2023/05/13 15:57:32;;;;;;;1.05;0.75;;;;;;;;;;5125414;27;20213;-55
2023/05/13 15:59:59;;;;;;;0.85;0.82;;;;;;;;;;5125277;27;20198;-54
2023/05/13 16:02:34;;;;;;;1.15;0.82;;;;;;;;;;5115476;28;21142;-55
2023/05/13 16:05:02;;;;;;;1.48;1.20;;;;;;;;;;5130320;28;20200;-55
2023/05/13 16:07:29;;;;;;;1.85;1.17;;;;;;;;;;5130952;28;20234;-55
2023/05/13 16:09:56;;;;;;;0.82;0.82;;;;;;;;;;5132579;28;20201;-55
2023/05/13 16:12:24;;;;;;;1.02;0.70;;;;;;;;;;5133152;28;20193;-55
2023/05/13 16:14:51;;;;;;;0.90;0.90;;;;;;;;;;5132634;28;20189;-54
2023/05/13 16:17:19;;;;;;;1.35;1.10;;;;;;;;;;5132003;28;20200;-56
2023/05/13 16:19:48;;;;;;;1.55;1.08;;;;;;;;;;5132475;28;20232;-56
2023/05/13 16:22:31;;;;;;;1.40;1.02;;;;;;;;;;5129647;28;20206;-58
2023/05/13 16:25:00;;;;;;;1.30;1.00;;;;;;;;;;5128185;28;20196;-57
2023/05/13 16:27:28;;;;;;;2.08;1.02;;;;;;;;;;5114054;28;20350;-53
2023/05/13 16:29:56;;;;;;;1.80;1.10;;;;;;;;;;5133207;28;20197;-42
2023/05/13 16:32:26;;;;;;;1.35;1.10;;;;;;;;;;5133597;28;20194;-43
2023/05/13 16:34:54;;;;;;;2.55;1.30;;;;;;;;;;5132724;28;20193;-46
2023/05/13 16:37:22;;;;;;;4.97;1.35;;;;;;;;;;5131280;28;20204;-54
2023/05/13 16:39:50;;;;;;;1.77;1.00;;;;;;;;;;5133167;28;20281;-54
2023/05/13 16:42:20;;;;;;;1.25;1.02;;;;;;;;;;5129950;28;20247;-49
2023/05/13 16:44:48;;;;;;;0.82;0.70;;;;;;;;;;5128756;28;20547;-52
2023/05/13 16:47:16;;;;;;;2.05;0.80;;;;;;;;;;5131822;28;20462;-45
2023/05/13 16:49:44;;;;;;;1.00;0.90;;;;;;;;;;5133455;28;20201;-47
2023/05/13 16:52:12;;;;;;;1.27;0.88;;;;;;;;;;5132078;27;20723;-50
2023/05/13 16:54:39;;;;;;;1.75;0.93;;;;;;;;;;5135537;27;20197;-48
2023/05/13 16:57:07;;;;;;;2.65;1.10;;;;;;;;;;5136857;27;20201;-53
2023/05/13 16:59:33;;;;;;;1.95;1.25;;;;;;;;;;5136500;27;20285;-49
2023/05/13 17:02:01;;;;;;;4.45;0.88;;;;;;;;;;5136669;27;20193;-56
2023/05/13 17:04:28;;;;;;;2.22;1.30;;;;;;;;;;5135800;27;20190;-54
2023/05/13 17:06:56;;;;;;;10.52;9.25;;;;;;;;;;5135865;27;20229;-52
2023/05/13 17:09:25;;;;;;;1.50;1.30;;;;;;;;;;5137442;27;20212;-54
2023/05/13 17:11:53;;;;;;;4.20;1.30;;;;;;;;;;5137693;27;20197;-49
2023/05/13 17:14:20;;;;;;;3.70;1.67;;;;;;;;;;5137015;27;20190;-53
2023/05/13 17:16:48;;;;;;;2.30;1.77;;;;;;;;;;5137036;27;20599;-48
2023/05/13 17:19:15;;;;;;;3.20;1.85;;;;;;;;;;5132481;27;20284;-54
2023/05/13 17:21:42;;;;;;;2.05;1.40;;;;;;;;;;5135310;27;20550;-50
2023/05/13 17:24:09;;;;;;;2.85;1.63;;;;;;;;;;5135553;27;20193;-56
2023/05/13 17:26:37;;;;;;;2.13;1.73;;;;;;;;;;5135528;27;20198;-49
2023/05/13 17:29:05;;;;;;;3.17;1.88;;;;;;;;;;5134797;27;20201;-56
2023/05/13 17:31:33;;;;;;;3.03;2.08;;;;;;;;;;5133896;27;20232;-53
2023/05/13 17:34:00;;;;;;;2.97;1.63;;;;;;;;;;5131247;27;20194;-55
2023/05/13 17:36:27;;;;;;;3.13;1.90;;;;;;;;;;5135313;27;20258;-55
2023/05/13 17:38:55;;;;;;;2.47;1.45;;;;;;;;;;5134741;27;20193;-53
2023/05/13 17:41:22;;;;;;;2.75;1.40;;;;;;;;;;5131986;27;20189;-55
2023/05/13 17:43:49;;;;;;;3.38;1.92;;;;;;;;;;5134788;27;20285;-55
2023/05/13 17:46:16;;;;;;;3.80;1.83;;;;;;;;;;5134974;27;20275;-55
2023/05/13 17:48:43;;;;;;;2.42;1.60;;;;;;;;;;5134378;27;20220;-53
2023/05/13 17:51:11;;;;;;;3.00;2.00;;;;;;;;;;5135454;27;20198;-55
2023/05/13 17:53:38;;;;;;;2.67;2.22;;;;;;;;;;5134058;27;20285;-54
2023/05/13 17:56:09;;;;;;;3.45;2.20;;;;;;;;;;5130350;27;20197;-55
2023/05/13 17:58:36;;;;;;;5.25;2.50;;;;;;;;;;5135060;27;20640;-55
2023/05/13 18:01:03;;;;;;;3.28;2.35;;;;;;;;;;5135145;27;20208;-55
2023/05/13 18:03:30;;;;;;;3.00;1.80;;;;;;;;;;5135796;27;20193;-54
2023/05/13 18:05:58;;;;;;;4.15;2.05;;;;;;;;;;5135759;27;20647;-54
2023/05/13 18:08:25;;;;;;;3.58;1.65;;;;;;;;;;5134886;27;20628;-52
2023/05/13 18:10:52;;;;;;;2.97;1.75;;;;;;;;;;5133540;27;20223;-52
2023/05/13 18:13:19;;;;;;;3.13;1.90;;;;;;;;;;5130293;27;20306;-48
2023/05/13 18:15:46;;;;;;;3.38;1.98;;;;;;;;;;5130654;27;20225;-51
2023/05/13 18:18:15;;;;;;;5.95;3.08;;;;;;;;;;5133203;27;20217;-49
2023/05/13 18:20:42;;;;;;;11.60;3.95;;;;;;;;;;5132022;27;20221;-52
2023/05/13 18:23:09;;;;;;;5.63;2.80;;;;;;;;;;5125289;27;20250;-55
2023/05/13 18:25:37;;;;;;;3.22;2.00;;;;;;;;;;5130941;27;20223;-53
2023/05/13 18:28:21;;;;;;;3.90;2.38;;;;;;;;;;5131344;27;20217;-55
2023/05/13 18:30:48;;;;;;;3.88;2.35;;;;;;;;;;5134264;27;20209;-55
2023/05/13 18:33:18;;;;;;;3.78;2.10;;;;;;;;;;5131568;27;20756;-55
2023/05/13 18:35:45;;;;;;;3.40;2.25;;;;;;;;;;5129007;27;20213;-54
2023/05/13 18:38:12;;;;;;;2.10;1.80;;;;;;;;;;5133690;27;20587;-54
2023/05/13 18:40:40;;;;;;;2.38;1.60;;;;;;;;;;5130987;27;20209;-54
2023/05/13 18:43:07;;;;;;;3.97;1.98;;;;;;;;;;5133342;27;20262;-55
2023/05/13 18:45:34;;;;;;;2.92;1.83;;;;;;;;;;5115427;27;20209;-58
2023/05/13 18:48:01;;;;;;;2.28;1.55;;;;;;;;;;5133544;27;20224;-55
2023/05/13 18:50:28;;;;;;;3.55;1.95;;;;;;;;;;5134026;27;20244;-55
2023/05/13 18:52:56;;;;;;;11.63;3.70;;;;;;;;;;5133158;27;20236;-53
2023/05/13 18:55:23;;;;;;;25.23;8.45;;;;;;;;;;5133493;27;20225;-54
2023/05/13 18:57:50;;;;;;;105.65;27.52;;;;;;;;;;5132638;27;20222;-53
2023/05/13 19:00:18;;;;;;;107.13;28.15;;;;;;;;;;5128102;27;20225;-56
2023/05/13 19:02:45;;;;;;;79.97;23.85;;;;;;;;;;5133616;27;20221;-56
2023/05/13 19:05:12;;;;;;;13.38;5.53;;;;;;;;;;5131849;27;20320;-57
2023/05/13 19:07:39;;;;;;;4.50;2.50;;;;;;;;;;5129610;27;20217;-46
2023/05/13 19:10:07;;;;;;;25.70;13.02;;;;;;;;;;5134208;27;20607;-56
2023/05/13 19:12:34;;;;;;;6.22;3.42;;;;;;;;;;5134409;27;20216;-57
2023/05/13 19:15:01;;;;;;;5.15;2.80;;;;;;;;;;5133801;27;20235;-57
2023/05/13 19:17:29;;;;;;;4.97;2.92;;;;;;;;;;5133396;27;20717;-57
2023/05/13 19:19:59;;;;;;;4.50;2.70;;;;;;;;;;5132767;27;20565;-57
2023/05/13 19:22:26;;;;;;;3.08;2.38;;;;;;;;;;5133277;27;20220;-57
2023/05/13 19:24:53;;;;;;;19.30;7.38;;;;;;;;;;5132813;27;20245;-57
2023/05/13 19:27:20;;;;;;;4.45;3.15;;;;;;;;;;5132623;27;20226;-57
2023/05/13 19:29:48;;;;;;;7.63;3.25;;;;;;;;;;5132625;27;20692;-57
2023/05/13 19:32:15;;;;;;;6.55;3.63;;;;;;;;;;5130305;27;20252;-57
2023/05/13 19:34:42;;;;;;;5.18;3.33;;;;;;;;;;5132288;27;20259;-57
2023/05/13 19:37:09;;;;;;;6.30;2.97;;;;;;;;;;5132532;27;20330;-56
2023/05/13 19:39:37;;;;;;;7.35;3.83;;;;;;;;;;5132857;27;20223;-57
2023/05/13 19:42:04;;;;;;;5.95;3.03;;;;;;;;;;5132649;27;20221;-56
2023/05/13 19:44:32;;;;;;;6.43;3.20;;;;;;;;;;5132196;27;20217;-56
2023/05/13 19:47:00;;;;;;;4.55;3.15;;;;;;;;;;5132793;27;20311;-55
2023/05/13 19:49:27;;;;;;;9.40;4.20;;;;;;;;;;5132275;27;20221;-56
2023/05/13 19:51:56;;;;;;;7.18;3.95;;;;;;;;;;5132546;27;20248;-56
2023/05/13 19:54:23;;;;;;;4.90;3.20;;;;;;;;;;5132713;27;20217;-56
2023/05/13 19:56:50;;;;;;;18.77;7.88;;;;;;;;;;5129719;27;20213;-57
2023/05/13 19:59:21;;;;;;;23.05;8.43;;;;;;;;;;5132607;27;20239;-54
2023/05/13 20:01:48;;;;;;;5.70;4.00;;;;;;;;;;5134097;27;20221;-52
2023/05/13 20:04:15;;;;;;;4.40;3.38;;;;;;;;;;5132559;27;20225;-56
2023/05/13 20:06:43;;;;;;;5.35;2.88;;;;;;;;;;5132460;28;20640;-55
2023/05/13 20:09:10;;;;;;;7.20;3.60;;;;;;;;;;5131919;28;20700;-57
2023/05/13 20:11:37;;;;;;;5.78;3.92;;;;;;;;;;5130960;28;20594;-54
2023/05/13 20:14:05;;;;;;;6.03;3.38;;;;;;;;;;5131571;28;20605;-53
2023/05/13 20:16:32;;;;;;;4.60;2.90;;;;;;;;;;5128515;28;20707;-57
2023/05/13 20:18:59;;;;;;;3.72;2.60;;;;;;;;;;5128256;28;20743;-57
2023/05/13 20:21:27;;;;;;;6.13;3.28;;;;;;;;;;5116051;28;20220;-55
2023/05/13 20:23:55;;;;;;;5.70;3.47;;;;;;;;;;5133607;28;20229;-52
2023/05/13 20:26:24;;;;;;;5.05;3.35;;;;;;;;;;5131616;27;20653;-51
2023/05/13 20:28:52;;;;;;;4.68;2.97;;;;;;;;;;5134963;27;20613;-49
2023/05/13 20:31:19;;;;;;;4.97;3.10;;;;;;;;;;5135957;27;20233;-52
2023/05/13 20:33:46;;;;;;;6.50;3.92;;;;;;;;;;5135800;27;20217;-50
2023/05/13 20:36:13;;;;;;;5.25;4.47;;;;;;;;;;5136048;27;20229;-50
2023/05/13 20:38:40;;;;;;;7.78;4.32;;;;;;;;;;5135938;27;20221;-51
2023/05/13 20:41:07;;;;;;;5.40;3.63;;;;;;;;;;5135804;27;20221;-52
2023/05/13 20:43:37;;;;;;;5.65;3.45;;;;;;;;;;5137375;27;20225;-52
2023/05/13 20:46:05;;;;;;;4.20;3.22;;;;;;;;;;5137364;27;20225;-51
2023/05/13 20:48:34;;;;;;;4.70;3.42;;;;;;;;;;5119721;27;20588;-49
2023/05/13 20:51:03;;;;;;;5.22;3.08;;;;;;;;;;5134958;27;20275;-54
2023/05/13 20:53:34;;;;;;;7.07;3.28;;;;;;;;;;5126184;27;20230;-50
2023/05/13 20:56:01;;;;;;;6.10;3.40;;;;;;;;;;5116556;28;20716;-50
2023/05/13 20:58:29;;;;;;;5.93;3.38;;;;;;;;;;5133003;27;20225;-52
2023/05/13 21:00:56;;;;;;;4.72;2.80;;;;;;;;;;5136950;27;20221;-54
2023/05/13 21:03:24;;;;;;;5.32;3.28;;;;;;;;;;5137524;27;20338;-51
2023/05/13 21:05:51;;;;;;;5.22;3.28;;;;;;;;;;5137031;27;20320;-57
2023/05/13 21:08:18;;;;;;;6.32;2.83;;;;;;;;;;5130141;27;20233;-55
2023/05/13 21:10:45;;;;;;;3.72;2.90;;;;;;;;;;5119706;27;20218;-51
2023/05/13 21:13:12;;;;;;;4.47;2.83;;;;;;;;;;5116377;28;20226;-52
2023/05/13 21:15:39;;;;;;;4.03;2.85;;;;;;;;;;5116524;28;20225;-51
2023/05/13 21:18:07;;;;;;;8.73;3.78;;;;;;;;;;5116485;28;20237;-57
2023/05/13 21:20:34;;;;;;;7.35;4.00;;;;;;;;;;5116458;28;20222;-51
2023/05/13 21:23:01;;;;;;;6.07;3.33;;;;;;;;;;5116254;28;20771;-53
2023/05/13 21:25:28;;;;;;;6.72;3.03;;;;;;;;;;5115706;28;20230;-50
2023/05/13 21:27:55;;;;;;;11.98;4.35;;;;;;;;;;5127633;27;20237;-54
2023/05/13 21:30:22;;;;;;;5.63;3.55;;;;;;;;;;5136765;27;20250;-53
2023/05/13 21:32:50;;;;;;;10.18;4.13;;;;;;;;;;5136526;27;20278;-50
2023/05/13 21:35:18;;;;;;;10.02;4.18;;;;;;;;;;5136710;27;20304;-56
2023/05/13 21:37:45;;;;;;;18.70;7.13;;;;;;;;;;5136091;27;20270;-51
2023/05/13 21:40:13;;;;;;;12.02;5.07;;;;;;;;;;5136183;27;20274;-55
2023/05/13 21:42:40;;;;;;;14.48;5.28;;;;;;;;;;5135893;27;20225;-51
2023/05/13 21:45:08;;;;;;;8.05;3.97;;;;;;;;;;5136456;27;20221;-52
2023/05/13 21:47:35;;;;;;;6.40;2.97;;;;;;;;;;5136505;27;20225;-51
2023/05/13 21:50:02;;;;;;;4.40;2.95;;;;;;;;;;5136747;27;20205;-53
2023/05/13 21:52:30;;;;;;;19.77;6.60;;;;;;;;;;5137106;27;20212;-51
2023/05/13 21:54:56;;;;;;;5.47;3.08;;;;;;;;;;5137135;27;20325;-51
2023/05/13 21:57:24;;;;;;;5.32;2.70;;;;;;;;;;5137028;27;20202;-51
2023/05/13 21:59:51;;;;;;;6.63;3.55;;;;;;;;;;5136897;27;20254;-51
2023/05/13 22:02:18;;;;;;;5.65;3.30;;;;;;;;;;5136855;27;20246;-50
2023/05/13 22:04:45;;;;;;;5.00;2.95;;;;;;;;;;5136597;27;20205;-52
2023/05/13 22:07:12;;;;;;;6.30;3.67;;;;;;;;;;5137046;27;20229;-51
2023/05/13 22:09:39;;;;;;;5.60;4.10;;;;;;;;;;5136661;27;20229;-50
2023/05/13 22:12:08;;;;;;;4.88;2.65;;;;;;;;;;5136642;27;20201;-51
2023/05/13 22:14:35;;;;;;;5.70;2.90;;;;;;;;;;5136801;27;20197;-54
2023/05/13 22:17:02;;;;;;;5.03;3.70;;;;;;;;;;5136426;27;20686;-50
2023/05/13 22:19:36;;;;;;;5.93;4.20;;;;;;;;;;5136376;27;20254;-50
2023/05/13 22:22:03;;;;;;;9.15;5.03;;;;;;;;;;5135764;27;20197;-50
2023/05/13 22:24:31;;;;;;;7.63;4.47;;;;;;;;;;5136226;27;20201;-52
2023/05/13 22:26:59;;;;;;;10.18;4.43;;;;;;;;;;5135951;27;20201;-50
2023/05/13 22:29:26;;;;;;;9.88;4.70;;;;;;;;;;5135911;27;20221;-52
2023/05/13 22:31:54;;;;;;;7.47;4.63;;;;;;;;;;5136260;27;20234;-50
2023/05/13 22:34:22;;;;;;;8.90;4.47;;;;;;;;;;5136333;27;20242;-51
2023/05/13 22:36:49;;;;;;;9.88;4.88;;;;;;;;;;5135968;27;20254;-50
2023/05/13 22:39:16;;;;;;;6.28;3.65;;;;;;;;;;5136224;27;20251;-53
2023/05/13 22:41:44;;;;;;;7.60;3.67;;;;;;;;;;5136184;27;20206;-50
2023/05/13 22:44:11;;;;;;;5.85;3.00;;;;;;;;;;5134053;27;20199;-50
2023/05/13 22:46:38;;;;;;;13.07;4.95;;;;;;;;;;5135735;27;20652;-51
2023/05/13 22:49:05;;;;;;;25.63;7.38;;;;;;;;;;5134934;27;20231;-51
2023/05/13 22:51:33;;;;;;;24.67;5.82;;;;;;;;;;5133811;27;20213;-51
2023/05/13 22:54:00;;;;;;;41.17;10.38;;;;;;;;;;5135436;27;20201;-51
2023/05/13 22:56:27;;;;;;;19.33;6.03;;;;;;;;;;5135672;27;20205;-51
2023/05/13 22:58:54;;;;;;;14.38;6.05;;;;;;;;;;5135414;27;20212;-52
2023/05/13 23:01:21;;;;;;;21.98;6.50;;;;;;;;;;5135687;27;20563;-53
2023/05/13 23:03:48;;;;;;;8.65;3.67;;;;;;;;;;5135620;27;20258;-50
2023/05/13 23:06:15;;;;;;;4.20;2.63;;;;;;;;;;5135410;27;20278;-52
2023/05/13 23:08:42;;;;;;;5.85;3.10;;;;;;;;;;5135258;27;20224;-53
2023/05/13 23:11:10;;;;;;;5.45;3.03;;;;;;;;;;5135396;27;20603;-52
2023/05/13 23:13:36;;;;;;;4.43;3.05;;;;;;;;;;5135221;27;20193;-52
2023/05/13 23:16:04;;;;;;;38.15;10.40;;;;;;;;;;5135450;27;20205;-51
2023/05/13 23:18:32;;;;;;;19.73;6.72;;;;;;;;;;5135449;27;20205;-51
2023/05/13 23:21:01;;;;;;;129.45;35.65;;;;;;;;;;5134991;27;20201;-50
2023/05/13 23:23:28;;;;;;;79.40;22.95;;;;;;;;;;5135035;27;20201;-51
2023/05/13 23:25:56;;;;;;;30.90;11.70;;;;;;;;;;5135021;27;20197;-53
2023/05/13 23:28:22;;;;;;;11.32;4.47;;;;;;;;;;5134838;27;20209;-51
2023/05/13 23:30:53;;;;;;;12.15;5.72;;;;;;;;;;5135197;27;20204;-50
2023/05/13 23:33:20;;;;;;;11.23;4.63;;;;;;;;;;5135201;27;20197;-53
2023/05/13 23:35:55;;;;;;;8.93;3.70;;;;;;;;;;5135104;27;20266;-54
2023/05/13 23:38:22;;;;;;;7.63;3.80;;;;;;;;;;5134822;27;20264;-54
2023/05/13 23:40:49;;;;;;;6.57;3.80;;;;;;;;;;5135555;27;20205;-54
2023/05/13 23:43:16;;;;;;;7.97;3.38;;;;;;;;;;5135239;27;20209;-52
2023/05/13 23:45:44;;;;;;;7.05;3.88;;;;;;;;;;5134694;27;20205;-51
2023/05/13 23:48:11;;;;;;;8.10;3.78;;;;;;;;;;5134812;27;20205;-51
2023/05/13 23:50:40;;;;;;;5.75;3.17;;;;;;;;;;5134906;27;20216;-50
2023/05/13 23:53:07;;;;;;;5.60;3.25;;;;;;;;;;5134552;27;20324;-51
2023/05/13 23:55:34;;;;;;;5.55;3.25;;;;;;;;;;5135186;27;20201;-51
2023/05/13 23:58:01;;;;;;;9.93;3.95;;;;;;;;;;5134487;27;20651;-52
